sensor_id;sensor_type;location;lat;lon;timestamp;P1;P4;P2;P0;N10;N4;N25;N1;N05;TS
78521;SPS30;67819;51.972;5.678;2023-03-03T18:16:16;3.2;3.0;2.6;2.1;;;;2.0;62.0;
78521;SPS30;67819;51.972;5.678;2023-03-03T18:18:57;3.3;3.2;2.9;2.4;;;;52.0;90.0;
78521;SPS30;67819;51.972;5.678;2023-03-03T18:21:41;2.1;2.1;1.9;1.7;;;;52.0;95.0;
78521;SPS30;67819;51.972;5.678;2023-03-03T18:24:27;2.9;2.8;2.6;2.3;;;;39.0;101.0;
78521;SPS30;67819;51.972;5.678;2023-03-03T18:27:26;3.2;3.1;3.0;2.6;;;;34.0;97.0;
78521;SPS30;67819;51.972;5.678;2023-03-03T18:30:13;3.6;3.5;3.3;2.9;;;;20.0;93.0;
78521;SPS30;67819;51.972;5.678;2023-03-03T18:32:57;3.2;3.1;2.9;2.5;;;;13.0;95.0;
78521;SPS30;67819;51.972;5.678;2023-03-03T18:35:37;3.0;2.9;2.6;2.1;;;;10.0;98.0;
78521;SPS30;67819;51.972;5.678;2023-03-03T18:38:24;4.3;4.1;3.6;3.0;;;;8.0;101.0;
78521;SPS30;67819;51.972;5.678;2023-03-03T18:40:59;3.5;3.4;3.1;2.6;;;;6.0;102.0;
78521;SPS30;67819;51.972;5.678;2023-03-03T18:50:05;3.7;3.6;3.4;3.0;;;;3.0;102.0;
78521;SPS30;67819;51.972;5.678;2023-03-03T18:53:06;4.2;4.0;3.8;3.3;;;;3.0;97.0;
78521;SPS30;67819;51.972;5.678;2023-03-03T18:55:43;3.7;3.6;3.3;2.8;;;;2.0;90.0;
78521;SPS30;67819;51.972;5.678;2023-03-03T18:58:35;4.6;4.4;3.9;3.2;;;;2.0;114.0;
78521;SPS30;67819;51.972;5.678;2023-03-03T19:05:56;6.0;5.8;5.2;4.3;;;;2.0;69.0;
78521;SPS30;67819;51.972;5.678;2023-03-03T19:08:28;6.0;5.6;4.9;3.7;;;;2.0;63.0;
78521;SPS30;67819;51.972;5.678;2023-03-03T19:11:03;5.8;5.4;4.6;3.5;;;;2.0;67.0;
78521;SPS30;67819;51.972;5.678;2023-03-03T19:13:39;6.2;5.8;5.0;3.8;;;;2.0;68.0;
78521;SPS30;67819;51.972;5.678;2023-03-03T19:16:11;5.9;5.5;4.6;3.3;;;;2.0;36.0;
78521;SPS30;67819;51.972;5.678;2023-03-03T19:19:09;4.5;4.2;3.5;2.6;;;;1.0;37.0;
78521;SPS30;67819;51.972;5.678;2023-03-03T19:21:40;6.3;5.9;4.9;3.5;;;;1.0;36.0;
78521;SPS30;67819;51.972;5.678;2023-03-03T19:24:32;5.4;5.1;4.3;3.2;;;;1.0;34.0;
78521;SPS30;67819;51.972;5.678;2023-03-03T19:27:05;5.5;5.1;4.3;3.1;;;;1.0;39.0;
78521;SPS30;67819;51.972;5.678;2023-03-03T19:33:23;5.8;5.4;4.6;3.4;;;;1.0;53.0;
78521;SPS30;67819;51.972;5.678;2023-03-03T19:37:09;6.3;6.0;5.1;3.9;;;;1.0;50.0;
78521;SPS30;67819;51.972;5.678;2023-03-03T19:39:57;6.3;5.9;5.0;3.8;;;;1.0;48.0;
78521;SPS30;67819;51.972;5.678;2023-03-03T19:42:38;4.9;4.5;3.8;2.8;;;;1.0;54.0;
78521;SPS30;67819;51.972;5.678;2023-03-03T19:45:20;5.6;5.1;4.2;2.8;;;;1.0;68.0;
78521;SPS30;67819;51.972;5.678;2023-03-03T19:47:59;5.2;4.8;3.8;2.5;;;;1.0;57.0;
78521;SPS30;67819;51.972;5.678;2023-03-03T19:50:38;6.6;6.0;4.8;3.2;;;;1.0;43.0;
78521;SPS30;67819;51.972;5.678;2023-03-03T19:53:17;6.1;5.6;4.6;3.2;;;;1.0;45.0;
78521;SPS30;67819;51.972;5.678;2023-03-03T19:56:13;5.6;5.2;4.3;3.0;;;;1.0;48.0;
78521;SPS30;67819;51.972;5.678;2023-03-03T19:59:06;6.5;6.0;4.9;3.4;;;;1.0;51.0;
78521;SPS30;67819;51.972;5.678;2023-03-03T20:01:48;6.7;6.1;4.9;3.3;;;;1.0;62.0;
78521;SPS30;67819;51.972;5.678;2023-03-03T20:04:35;6.6;6.0;4.9;3.4;;;;1.0;79.0;
78521;SPS30;67819;51.972;5.678;2023-03-03T20:07:22;7.2;6.6;5.4;3.8;;;;1.0;77.0;
78521;SPS30;67819;51.972;5.678;2023-03-03T20:10:03;6.8;6.2;5.1;3.6;;;;1.0;82.0;
78521;SPS30;67819;51.972;5.678;2023-03-03T20:12:49;6.6;6.1;5.1;3.7;;;;1.0;82.0;
78521;SPS30;67819;51.972;5.678;2023-03-03T20:15:28;7.0;6.4;5.3;3.7;;;;1.0;77.0;
78521;SPS30;67819;51.972;5.678;2023-03-03T20:18:18;6.3;5.8;4.8;3.3;;;;1.0;75.0;
78521;SPS30;67819;51.972;5.678;2023-03-03T20:21:09;6.2;5.7;4.7;3.3;;;;1.0;76.0;
78521;SPS30;67819;51.972;5.678;2023-03-03T20:23:49;6.2;5.7;4.8;3.5;;;;1.0;89.0;
78521;SPS30;67819;51.972;5.678;2023-03-03T20:26:33;5.4;5.0;4.2;3.1;;;;1.0;116.0;
78521;SPS30;67819;51.972;5.678;2023-03-03T20:29:16;6.1;5.7;4.7;3.4;;;;1.0;112.0;
78521;SPS30;67819;51.972;5.678;2023-03-03T20:32:03;5.8;5.4;4.5;3.2;;;;1.0;111.0;
78521;SPS30;67819;51.972;5.678;2023-03-03T20:34:45;6.8;6.3;5.1;3.4;;;;1.0;121.0;
78521;SPS30;67819;51.972;5.678;2023-03-03T20:37:25;7.3;6.7;5.4;3.7;;;;1.0;128.0;
78521;SPS30;67819;51.972;5.678;2023-03-03T20:40:12;7.3;6.7;5.3;3.5;;;;1.0;127.0;
78521;SPS30;67819;51.972;5.678;2023-03-03T20:42:55;6.0;5.4;4.3;2.8;;;;1.0;124.0;
78521;SPS30;67819;51.972;5.678;2023-03-03T20:45:42;6.6;6.1;5.0;3.5;;;;1.0;133.0;
78521;SPS30;67819;51.972;5.678;2023-03-03T20:48:30;6.7;6.2;5.1;3.7;;;;1.0;154.0;
78521;SPS30;67819;51.972;5.678;2023-03-03T20:51:14;7.2;6.6;5.3;3.6;;;;1.0;164.0;
78521;SPS30;67819;51.972;5.678;2023-03-03T20:53:56;6.8;6.2;5.0;3.4;;;;1.0;146.0;
78521;SPS30;67819;51.972;5.678;2023-03-03T20:56:37;6.9;6.3;5.2;3.6;;;;1.0;141.0;
78521;SPS30;67819;51.972;5.678;2023-03-03T20:59:19;5.5;5.1;4.1;2.9;;;;1.0;143.0;
78521;SPS30;67819;51.972;5.678;2023-03-03T21:02:01;6.2;5.7;4.6;3.1;;;;1.0;138.0;
78521;SPS30;67819;51.972;5.678;2023-03-03T21:04:43;6.1;5.6;4.6;3.2;;;;1.0;155.0;
78521;SPS30;67819;51.972;5.678;2023-03-03T21:07:23;6.6;6.1;5.0;3.5;;;;1.0;160.0;
78521;SPS30;67819;51.972;5.678;2023-03-03T21:10:08;6.6;6.1;5.0;3.6;;;;1.0;190.0;
78521;SPS30;67819;51.972;5.678;2023-03-03T21:12:41;6.2;5.8;4.9;3.6;;;;1.0;226.0;
78521;SPS30;67819;51.972;5.678;2023-03-03T21:15:21;6.6;6.2;5.2;3.9;;;;1.0;284.0;
78521;SPS30;67819;51.972;5.678;2023-03-03T21:17:56;6.6;6.2;5.3;3.9;;;;1.0;297.0;
78521;SPS30;67819;51.972;5.678;2023-03-03T21:20:29;6.4;6.0;5.1;3.8;;;;1.0;276.0;
78521;SPS30;67819;51.972;5.678;2023-03-03T21:23:01;6.2;5.7;4.7;3.3;;;;1.0;265.0;
78521;SPS30;67819;51.972;5.678;2023-03-03T21:25:44;7.0;6.5;5.4;3.9;;;;1.0;277.0;
78521;SPS30;67819;51.972;5.678;2023-03-03T21:28:17;6.8;6.3;5.2;3.7;;;;1.0;280.0;
78521;SPS30;67819;51.972;5.678;2023-03-03T21:31:04;6.6;6.1;5.0;3.5;;;;1.0;228.0;
78521;SPS30;67819;51.972;5.678;2023-03-03T21:33:43;6.7;6.2;5.0;3.5;;;;1.0;162.0;
78521;SPS30;67819;51.972;5.678;2023-03-03T21:36:15;7.0;6.5;5.4;3.9;;;;1.0;158.0;
78521;SPS30;67819;51.972;5.678;2023-03-03T21:38:46;6.7;6.2;5.2;3.7;;;;1.0;166.0;
78521;SPS30;67819;51.972;5.678;2023-03-03T21:41:16;5.7;5.3;4.6;3.5;;;;1.0;155.0;
78521;SPS30;67819;51.972;5.678;2023-03-03T21:43:47;6.5;6.1;5.2;4.0;;;;1.0;164.0;
78521;SPS30;67819;51.972;5.678;2023-03-03T21:46:18;7.0;6.5;5.5;4.0;;;;1.0;155.0;
78521;SPS30;67819;51.972;5.678;2023-03-03T21:48:50;8.0;7.5;6.4;4.8;;;;1.0;163.0;
78521;SPS30;67819;51.972;5.678;2023-03-03T21:51:20;6.6;6.2;5.3;4.0;;;;1.0;168.0;
78521;SPS30;67819;51.972;5.678;2023-03-03T21:53:51;7.4;6.9;5.9;4.4;;;;1.0;171.0;
78521;SPS30;67819;51.972;5.678;2023-03-03T21:56:21;7.2;6.8;6.0;4.7;;;;1.0;166.0;
78521;SPS30;67819;51.972;5.678;2023-03-03T21:58:51;6.4;6.1;5.3;4.2;;;;1.0;167.0;
78521;SPS30;67819;51.972;5.678;2023-03-03T22:01:22;6.7;6.4;5.7;4.6;;;;1.0;183.0;
78521;SPS30;67819;51.972;5.678;2023-03-03T22:03:52;6.4;6.0;5.2;3.9;;;;1.0;188.0;
78521;SPS30;67819;51.972;5.678;2023-03-03T22:06:21;7.0;6.5;5.3;3.8;;;;1.0;190.0;
78521;SPS30;67819;51.972;5.678;2023-03-03T22:08:51;7.3;6.7;5.6;4.0;;;;1.0;228.0;
78521;SPS30;67819;51.972;5.678;2023-03-03T22:11:20;5.7;5.3;4.4;3.1;;;;1.0;243.0;
78521;SPS30;67819;51.972;5.678;2023-03-03T22:13:50;6.6;6.1;5.1;3.7;;;;1.0;293.0;
78521;SPS30;67819;51.972;5.678;2023-03-03T22:16:20;6.5;6.1;5.1;3.8;;;;1.0;262.0;
78521;SPS30;67819;51.972;5.678;2023-03-03T22:18:50;6.7;6.2;5.1;3.7;;;;1.0;244.0;
78521;SPS30;67819;51.972;5.678;2023-03-03T22:21:19;7.8;7.2;5.8;4.0;;;;1.0;248.0;
78521;SPS30;67819;51.972;5.678;2023-03-03T22:23:51;6.8;6.3;5.1;3.4;;;;1.0;259.0;
78521;SPS30;67819;51.972;5.678;2023-03-03T22:26:21;6.8;6.2;5.0;3.4;;;;1.0;244.0;
78521;SPS30;67819;51.972;5.678;2023-03-03T22:28:51;6.5;6.0;4.9;3.5;;;;1.0;269.0;
78521;SPS30;67819;51.972;5.678;2023-03-03T22:31:22;6.4;5.9;4.8;3.3;;;;1.0;266.0;
78521;SPS30;67819;51.972;5.678;2023-03-03T22:33:52;6.9;6.3;5.1;3.5;;;;1.0;252.0;
78521;SPS30;67819;51.972;5.678;2023-03-03T22:36:23;6.9;6.4;5.2;3.5;;;;1.0;168.0;
78521;SPS30;67819;51.972;5.678;2023-03-03T22:38:53;6.6;6.0;4.8;3.1;;;;1.0;133.0;
78521;SPS30;67819;51.972;5.678;2023-03-03T22:41:23;6.7;6.1;4.8;3.1;;;;1.0;74.0;
78521;SPS30;67819;51.972;5.678;2023-03-03T22:43:52;7.9;7.2;5.6;3.5;;;;1.0;54.0;
78521;SPS30;67819;51.972;5.678;2023-03-03T22:46:22;6.8;6.2;4.8;3.1;;;;1.0;58.0;
78521;SPS30;67819;51.972;5.678;2023-03-03T22:48:52;7.0;6.4;5.0;3.2;;;;1.0;64.0;
78521;SPS30;67819;51.972;5.678;2023-03-03T22:51:22;7.3;6.7;5.3;3.5;;;;1.0;68.0;
78521;SPS30;67819;51.972;5.678;2023-03-03T22:53:52;6.9;6.4;5.1;3.4;;;;1.0;69.0;
78521;SPS30;67819;51.972;5.678;2023-03-03T22:56:21;7.1;6.4;5.1;3.4;;;;1.0;73.0;
78521;SPS30;67819;51.972;5.678;2023-03-03T22:58:51;8.6;7.8;6.2;3.9;;;;1.0;77.0;
78521;SPS30;67819;51.972;5.678;2023-03-03T23:01:20;7.6;7.0;5.5;3.6;;;;1.0;85.0;
78521;SPS30;67819;51.972;5.678;2023-03-03T23:03:50;6.8;6.2;5.1;3.5;;;;1.0;101.0;
78521;SPS30;67819;51.972;5.678;2023-03-03T23:06:20;7.3;6.6;5.4;3.6;;;;1.0;98.0;
78521;SPS30;67819;51.972;5.678;2023-03-03T23:08:49;7.4;6.7;5.4;3.6;;;;1.0;98.0;
78521;SPS30;67819;51.972;5.678;2023-03-03T23:11:19;6.5;5.9;4.8;3.2;;;;1.0;98.0;
78521;SPS30;67819;51.972;5.678;2023-03-03T23:13:50;7.6;7.0;5.6;3.7;;;;1.0;83.0;
78521;SPS30;67819;51.972;5.678;2023-03-03T23:16:22;6.4;5.9;4.8;3.4;;;;1.0;85.0;
78521;SPS30;67819;51.972;5.678;2023-03-03T23:18:53;7.7;7.1;5.7;3.8;;;;1.0;72.0;
78521;SPS30;67819;51.972;5.678;2023-03-03T23:21:25;6.8;6.3;5.2;3.6;;;;1.0;64.0;
78521;SPS30;67819;51.972;5.678;2023-03-03T23:23:54;6.2;5.7;4.7;3.3;;;;1.0;68.0;
78521;SPS30;67819;51.972;5.678;2023-03-03T23:26:24;8.3;7.6;6.2;4.3;;;;1.0;90.0;
78521;SPS30;67819;51.972;5.678;2023-03-03T23:28:54;6.0;5.5;4.6;3.2;;;;1.0;79.0;
78521;SPS30;67819;51.972;5.678;2023-03-03T23:31:24;7.3;6.7;5.4;3.7;;;;1.0;85.0;
78521;SPS30;67819;51.972;5.678;2023-03-03T23:33:55;8.0;7.3;5.9;3.9;;;;1.0;84.0;
78521;SPS30;67819;51.972;5.678;2023-03-03T23:36:25;7.0;6.4;5.2;3.4;;;;1.0;86.0;
78521;SPS30;67819;51.972;5.678;2023-03-03T23:38:55;8.1;7.4;5.9;4.0;;;;1.0;88.0;
78521;SPS30;67819;51.972;5.678;2023-03-03T23:41:24;6.3;5.8;4.6;3.1;;;;1.0;78.0;
78521;SPS30;67819;51.972;5.678;2023-03-03T23:43:54;7.0;6.4;5.1;3.4;;;;1.0;71.0;
78521;SPS30;67819;51.972;5.678;2023-03-03T23:46:24;6.7;6.1;4.8;3.0;;;;1.0;72.0;
78521;SPS30;67819;51.972;5.678;2023-03-03T23:48:53;7.4;6.7;5.3;3.4;;;;1.0;67.0;
78521;SPS30;67819;51.972;5.678;2023-03-03T23:51:24;6.8;6.1;4.8;2.9;;;;1.0;55.0;
78521;SPS30;67819;51.972;5.678;2023-03-03T23:53:53;6.3;5.7;4.5;2.9;;;;1.0;45.0;
78521;SPS30;67819;51.972;5.678;2023-03-03T23:56:23;5.6;5.1;4.0;2.4;;;;1.0;39.0;
78521;SPS30;67819;51.972;5.678;2023-03-03T23:58:53;7.4;6.7;5.3;3.3;;;;1.0;30.0;
